sensor_id;sensor_type;location;lat;lon;timestamp;temperature;humidity
70154;DHT22;57519;51.494;-2.626;2023-03-01T00:01:51;6.19;78.75
70154;DHT22;57519;51.494;-2.626;2023-03-01T00:04:17;6.17;78.94
70154;DHT22;57519;51.494;-2.626;2023-03-01T00:06:43;6.17;79.03
70154;DHT22;57519;51.494;-2.626;2023-03-01T00:09:12;6.19;78.69
70154;DHT22;57519;51.494;-2.626;2023-03-01T00:11:38;6.14;78.64
70154;DHT22;57519;51.494;-2.626;2023-03-01T00:14:03;6.13;78.18
70154;DHT22;57519;51.494;-2.626;2023-03-01T00:16:37;6.10;77.91
70154;DHT22;57519;51.494;-2.626;2023-03-01T00:19:11;6.06;78.01
70154;DHT22;57519;51.494;-2.626;2023-03-01T00:21:37;6.03;77.37
70154;DHT22;57519;51.494;-2.626;2023-03-01T00:24:03;6.05;76.65
70154;DHT22;57519;51.494;-2.626;2023-03-01T00:26:29;6.02;76.41
70154;DHT22;57519;51.494;-2.626;2023-03-01T00:28:57;5.99;76.06
70154;DHT22;57519;51.494;-2.626;2023-03-01T00:31:24;6.07;75.10
70154;DHT22;57519;51.494;-2.626;2023-03-01T00:33:54;6.05;75.16
70154;DHT22;57519;51.494;-2.626;2023-03-01T00:36:27;6.06;75.30
70154;DHT22;57519;51.494;-2.626;2023-03-01T00:38:53;6.02;75.00
70154;DHT22;57519;51.494;-2.626;2023-03-01T00:41:22;6.05;75.09
70154;DHT22;57519;51.494;-2.626;2023-03-01T00:43:49;6.03;75.32
70154;DHT22;57519;51.494;-2.626;2023-03-01T00:46:17;5.96;75.19
70154;DHT22;57519;51.494;-2.626;2023-03-01T00:48:44;5.92;75.10
70154;DHT22;57519;51.494;-2.626;2023-03-01T00:51:14;5.93;75.72
70154;DHT22;57519;51.494;-2.626;2023-03-01T00:53:40;5.89;75.49
70154;DHT22;57519;51.494;-2.626;2023-03-01T00:56:07;5.96;75.45
70154;DHT22;57519;51.494;-2.626;2023-03-01T00:58:34;5.99;75.36
70154;DHT22;57519;51.494;-2.626;2023-03-01T01:00:59;5.98;75.46
70154;DHT22;57519;51.494;-2.626;2023-03-01T01:03:25;5.98;75.30
70154;DHT22;57519;51.494;-2.626;2023-03-01T01:05:52;5.93;75.75
70154;DHT22;57519;51.494;-2.626;2023-03-01T01:08:19;5.95;75.76
70154;DHT22;57519;51.494;-2.626;2023-03-01T01:10:46;5.91;76.11
70154;DHT22;57519;51.494;-2.626;2023-03-01T01:13:12;5.89;75.97
70154;DHT22;57519;51.494;-2.626;2023-03-01T01:15:37;5.89;75.55
70154;DHT22;57519;51.494;-2.626;2023-03-01T01:18:03;5.91;75.93
70154;DHT22;57519;51.494;-2.626;2023-03-01T01:20:29;5.91;76.08
70154;DHT22;57519;51.494;-2.626;2023-03-01T01:22:54;5.92;76.09
70154;DHT22;57519;51.494;-2.626;2023-03-01T01:25:20;5.92;76.33
70154;DHT22;57519;51.494;-2.626;2023-03-01T01:27:45;5.88;76.74
70154;DHT22;57519;51.494;-2.626;2023-03-01T01:30:11;5.86;77.40
70154;DHT22;57519;51.494;-2.626;2023-03-01T01:32:37;5.83;77.84
70154;DHT22;57519;51.494;-2.626;2023-03-01T01:35:03;5.81;77.69
70154;DHT22;57519;51.494;-2.626;2023-03-01T01:37:28;5.78;78.16
70154;DHT22;57519;51.494;-2.626;2023-03-01T01:39:58;5.79;78.50
70154;DHT22;57519;51.494;-2.626;2023-03-01T01:42:24;5.75;78.70
70154;DHT22;57519;51.494;-2.626;2023-03-01T01:47:52;5.72;78.53
70154;DHT22;57519;51.494;-2.626;2023-03-01T01:50:19;5.75;78.48
70154;DHT22;57519;51.494;-2.626;2023-03-01T01:52:45;5.73;77.99
70154;DHT22;57519;51.494;-2.626;2023-03-01T01:55:19;5.72;76.92
70154;DHT22;57519;51.494;-2.626;2023-03-01T01:57:49;5.76;76.58
70154;DHT22;57519;51.494;-2.626;2023-03-01T02:00:21;5.73;76.67
70154;DHT22;57519;51.494;-2.626;2023-03-01T02:02:50;5.76;76.54
70154;DHT22;57519;51.494;-2.626;2023-03-01T02:07:46;5.75;76.05
70154;DHT22;57519;51.494;-2.626;2023-03-01T02:10:13;5.79;76.19
70154;DHT22;57519;51.494;-2.626;2023-03-01T02:12:39;5.76;76.55
70154;DHT22;57519;51.494;-2.626;2023-03-01T02:15:05;5.75;77.18
70154;DHT22;57519;51.494;-2.626;2023-03-01T02:17:31;5.71;77.58
70154;DHT22;57519;51.494;-2.626;2023-03-01T02:22:31;5.66;78.16
70154;DHT22;57519;51.494;-2.626;2023-03-01T02:30:21;5.62;78.82
70154;DHT22;57519;51.494;-2.626;2023-03-01T02:32:47;5.58;79.02
70154;DHT22;57519;51.494;-2.626;2023-03-01T02:35:15;5.56;79.36
70154;DHT22;57519;51.494;-2.626;2023-03-01T02:37:42;5.56;79.62
70154;DHT22;57519;51.494;-2.626;2023-03-01T02:40:12;5.59;79.48
70154;DHT22;57519;51.494;-2.626;2023-03-01T02:42:49;5.54;79.79
70154;DHT22;57519;51.494;-2.626;2023-03-01T02:45:16;5.52;80.13
70154;DHT22;57519;51.494;-2.626;2023-03-01T02:47:41;5.52;80.19
70154;DHT22;57519;51.494;-2.626;2023-03-01T02:53:28;5.45;80.30
70154;DHT22;57519;51.494;-2.626;2023-03-01T02:55:56;5.47;80.39
70154;DHT22;57519;51.494;-2.626;2023-03-01T02:58:22;5.50;80.36
70154;DHT22;57519;51.494;-2.626;2023-03-01T03:00:47;5.44;80.45
70154;DHT22;57519;51.494;-2.626;2023-03-01T03:03:16;5.44;80.46
70154;DHT22;57519;51.494;-2.626;2023-03-01T03:05:42;5.43;80.45
70154;DHT22;57519;51.494;-2.626;2023-03-01T03:08:08;5.45;80.04
70154;DHT22;57519;51.494;-2.626;2023-03-01T03:10:38;5.45;80.27
70154;DHT22;57519;51.494;-2.626;2023-03-01T03:13:09;5.48;80.18
70154;DHT22;57519;51.494;-2.626;2023-03-01T03:15:36;5.45;80.40
70154;DHT22;57519;51.494;-2.626;2023-03-01T03:18:03;5.47;80.20
70154;DHT22;57519;51.494;-2.626;2023-03-01T03:20:30;5.45;80.39
70154;DHT22;57519;51.494;-2.626;2023-03-01T03:22:57;5.45;80.20
70154;DHT22;57519;51.494;-2.626;2023-03-01T03:25:23;5.44;80.25
70154;DHT22;57519;51.494;-2.626;2023-03-01T03:27:50;5.44;80.27
70154;DHT22;57519;51.494;-2.626;2023-03-01T03:30:22;5.38;80.63
70154;DHT22;57519;51.494;-2.626;2023-03-01T03:32:48;5.31;80.47
70154;DHT22;57519;51.494;-2.626;2023-03-01T03:35:21;5.28;80.42
70154;DHT22;57519;51.494;-2.626;2023-03-01T03:37:47;5.26;80.30
70154;DHT22;57519;51.494;-2.626;2023-03-01T03:42:57;5.31;79.96
70154;DHT22;57519;51.494;-2.626;2023-03-01T03:45:22;5.34;79.59
70154;DHT22;57519;51.494;-2.626;2023-03-01T03:47:48;5.38;79.29
70154;DHT22;57519;51.494;-2.626;2023-03-01T03:50:15;5.35;79.74
70154;DHT22;57519;51.494;-2.626;2023-03-01T03:52:41;5.37;79.81
70154;DHT22;57519;51.494;-2.626;2023-03-01T03:55:08;5.33;80.16
70154;DHT22;57519;51.494;-2.626;2023-03-01T03:57:35;5.31;80.14
70154;DHT22;57519;51.494;-2.626;2023-03-01T04:00:00;5.30;80.19
70154;DHT22;57519;51.494;-2.626;2023-03-01T04:02:25;5.23;80.82
70154;DHT22;57519;51.494;-2.626;2023-03-01T04:04:51;5.23;80.75
70154;DHT22;57519;51.494;-2.626;2023-03-01T04:07:16;5.17;81.00
70154;DHT22;57519;51.494;-2.626;2023-03-01T04:09:43;5.09;81.53
70154;DHT22;57519;51.494;-2.626;2023-03-01T04:12:09;5.03;82.03
70154;DHT22;57519;51.494;-2.626;2023-03-01T04:14:35;5.00;82.40
70154;DHT22;57519;51.494;-2.626;2023-03-01T04:17:01;4.93;82.61
70154;DHT22;57519;51.494;-2.626;2023-03-01T04:19:29;4.90;83.12
70154;DHT22;57519;51.494;-2.626;2023-03-01T04:22:04;4.87;83.47
70154;DHT22;57519;51.494;-2.626;2023-03-01T04:24:35;4.87;83.85
70154;DHT22;57519;51.494;-2.626;2023-03-01T04:27:00;4.86;84.24
70154;DHT22;57519;51.494;-2.626;2023-03-01T04:29:26;4.82;84.66
70154;DHT22;57519;51.494;-2.626;2023-03-01T04:31:51;4.79;84.85
70154;DHT22;57519;51.494;-2.626;2023-03-01T04:34:17;4.85;85.07
70154;DHT22;57519;51.494;-2.626;2023-03-01T04:36:42;4.83;85.17
70154;DHT22;57519;51.494;-2.626;2023-03-01T04:39:08;4.80;85.30
70154;DHT22;57519;51.494;-2.626;2023-03-01T04:41:38;4.82;85.40
70154;DHT22;57519;51.494;-2.626;2023-03-01T04:44:08;4.82;85.42
70154;DHT22;57519;51.494;-2.626;2023-03-01T04:46:34;4.86;85.47
70154;DHT22;57519;51.494;-2.626;2023-03-01T04:49:00;4.83;85.56
70154;DHT22;57519;51.494;-2.626;2023-03-01T04:51:26;4.86;85.53
70154;DHT22;57519;51.494;-2.626;2023-03-01T04:53:51;4.85;85.63
70154;DHT22;57519;51.494;-2.626;2023-03-01T04:56:16;4.82;85.81
70154;DHT22;57519;51.494;-2.626;2023-03-01T04:58:48;4.85;85.83
70154;DHT22;57519;51.494;-2.626;2023-03-01T05:01:18;4.79;86.02
70154;DHT22;57519;51.494;-2.626;2023-03-01T05:03:47;4.83;86.30
70154;DHT22;57519;51.494;-2.626;2023-03-01T05:06:13;4.75;86.41
70154;DHT22;57519;51.494;-2.626;2023-03-01T05:08:40;4.76;86.61
70154;DHT22;57519;51.494;-2.626;2023-03-01T05:11:07;4.76;86.90
70154;DHT22;57519;51.494;-2.626;2023-03-01T05:13:35;4.76;87.01
70154;DHT22;57519;51.494;-2.626;2023-03-01T05:16:01;4.76;87.29
70154;DHT22;57519;51.494;-2.626;2023-03-01T05:18:29;4.73;87.36
70154;DHT22;57519;51.494;-2.626;2023-03-01T05:21:10;4.72;87.38
70154;DHT22;57519;51.494;-2.626;2023-03-01T05:23:36;4.72;87.50
70154;DHT22;57519;51.494;-2.626;2023-03-01T05:26:04;4.68;87.76
70154;DHT22;57519;51.494;-2.626;2023-03-01T05:28:30;4.65;87.99
70154;DHT22;57519;51.494;-2.626;2023-03-01T05:30:56;4.64;88.16
70154;DHT22;57519;51.494;-2.626;2023-03-01T05:33:22;4.65;88.36
70154;DHT22;57519;51.494;-2.626;2023-03-01T05:35:48;4.61;88.72
70154;DHT22;57519;51.494;-2.626;2023-03-01T05:38:16;4.62;89.07
70154;DHT22;57519;51.494;-2.626;2023-03-01T05:40:42;4.59;89.63
70154;DHT22;57519;51.494;-2.626;2023-03-01T05:43:09;4.54;90.47
70154;DHT22;57519;51.494;-2.626;2023-03-01T05:45:37;4.47;91.17
70154;DHT22;57519;51.494;-2.626;2023-03-01T05:48:04;4.47;91.56
70154;DHT22;57519;51.494;-2.626;2023-03-01T05:50:33;4.45;91.72
70154;DHT22;57519;51.494;-2.626;2023-03-01T05:53:16;4.41;92.05
70154;DHT22;57519;51.494;-2.626;2023-03-01T05:55:43;4.45;92.12
70154;DHT22;57519;51.494;-2.626;2023-03-01T05:58:13;4.45;92.15
70154;DHT22;57519;51.494;-2.626;2023-03-01T06:00:43;4.51;92.07
70154;DHT22;57519;51.494;-2.626;2023-03-01T06:03:11;4.49;92.16
70154;DHT22;57519;51.494;-2.626;2023-03-01T06:05:36;4.48;92.01
70154;DHT22;57519;51.494;-2.626;2023-03-01T06:08:02;4.49;92.17
70154;DHT22;57519;51.494;-2.626;2023-03-01T06:10:28;4.47;92.33
70154;DHT22;57519;51.494;-2.626;2023-03-01T06:12:54;4.45;92.53
70154;DHT22;57519;51.494;-2.626;2023-03-01T06:15:20;4.47;92.84
70154;DHT22;57519;51.494;-2.626;2023-03-01T06:17:45;4.48;92.93
70154;DHT22;57519;51.494;-2.626;2023-03-01T06:22:42;4.45;92.77
70154;DHT22;57519;51.494;-2.626;2023-03-01T06:25:09;4.41;92.69
70154;DHT22;57519;51.494;-2.626;2023-03-01T06:27:35;4.44;92.66
70154;DHT22;57519;51.494;-2.626;2023-03-01T06:30:01;4.47;92.83
70154;DHT22;57519;51.494;-2.626;2023-03-01T06:32:26;4.47;92.40
70154;DHT22;57519;51.494;-2.626;2023-03-01T06:34:52;4.44;92.13
70154;DHT22;57519;51.494;-2.626;2023-03-01T06:37:17;4.47;92.06
70154;DHT22;57519;51.494;-2.626;2023-03-01T06:39:43;4.47;91.89
70154;DHT22;57519;51.494;-2.626;2023-03-01T06:42:09;4.48;91.36
70154;DHT22;57519;51.494;-2.626;2023-03-01T06:44:35;4.51;90.68
70154;DHT22;57519;51.494;-2.626;2023-03-01T06:47:01;4.49;90.74
70154;DHT22;57519;51.494;-2.626;2023-03-01T06:49:26;4.49;90.23
70154;DHT22;57519;51.494;-2.626;2023-03-01T06:51:52;4.52;89.95
70154;DHT22;57519;51.494;-2.626;2023-03-01T06:54:17;4.55;89.68
70154;DHT22;57519;51.494;-2.626;2023-03-01T06:56:46;4.49;89.59
70154;DHT22;57519;51.494;-2.626;2023-03-01T06:59:12;4.51;89.74
70154;DHT22;57519;51.494;-2.626;2023-03-01T07:01:38;4.54;88.81
70154;DHT22;57519;51.494;-2.626;2023-03-01T07:04:04;4.61;88.86
70154;DHT22;57519;51.494;-2.626;2023-03-01T07:06:29;4.57;88.72
70154;DHT22;57519;51.494;-2.626;2023-03-01T07:08:55;4.58;88.48
70154;DHT22;57519;51.494;-2.626;2023-03-01T07:11:20;4.57;88.73
70154;DHT22;57519;51.494;-2.626;2023-03-01T07:13:46;4.61;88.56
70154;DHT22;57519;51.494;-2.626;2023-03-01T07:16:11;4.61;88.16
70154;DHT22;57519;51.494;-2.626;2023-03-01T07:18:37;4.62;87.78
70154;DHT22;57519;51.494;-2.626;2023-03-01T07:21:11;4.62;87.64
70154;DHT22;57519;51.494;-2.626;2023-03-01T07:23:37;4.66;87.69
70154;DHT22;57519;51.494;-2.626;2023-03-01T07:26:02;4.69;87.04
70154;DHT22;57519;51.494;-2.626;2023-03-01T07:28:28;4.73;86.84
70154;DHT22;57519;51.494;-2.626;2023-03-01T07:30:54;4.73;86.46
70154;DHT22;57519;51.494;-2.626;2023-03-01T07:33:20;4.76;86.38
70154;DHT22;57519;51.494;-2.626;2023-03-01T07:35:46;4.72;86.80
70154;DHT22;57519;51.494;-2.626;2023-03-01T07:38:11;4.72;86.73
70154;DHT22;57519;51.494;-2.626;2023-03-01T07:40:37;4.73;86.73
70154;DHT22;57519;51.494;-2.626;2023-03-01T07:43:02;4.72;86.72
70154;DHT22;57519;51.494;-2.626;2023-03-01T07:45:28;4.78;86.66
70154;DHT22;57519;51.494;-2.626;2023-03-01T07:47:55;4.80;86.56
70154;DHT22;57519;51.494;-2.626;2023-03-01T07:50:22;4.86;86.38
70154;DHT22;57519;51.494;-2.626;2023-03-01T07:52:49;4.93;86.83
70154;DHT22;57519;51.494;-2.626;2023-03-01T07:55:15;4.96;86.66
70154;DHT22;57519;51.494;-2.626;2023-03-01T07:57:41;4.96;86.44
70154;DHT22;57519;51.494;-2.626;2023-03-01T08:00:10;4.93;86.63
70154;DHT22;57519;51.494;-2.626;2023-03-01T08:02:36;4.89;86.42
70154;DHT22;57519;51.494;-2.626;2023-03-01T08:05:01;4.86;86.81
70154;DHT22;57519;51.494;-2.626;2023-03-01T08:07:27;4.85;86.88
70154;DHT22;57519;51.494;-2.626;2023-03-01T08:09:52;4.83;86.56
70154;DHT22;57519;51.494;-2.626;2023-03-01T08:12:18;4.86;87.51
70154;DHT22;57519;51.494;-2.626;2023-03-01T08:14:43;4.90;87.78
70154;DHT22;57519;51.494;-2.626;2023-03-01T08:17:09;4.85;87.51
70154;DHT22;57519;51.494;-2.626;2023-03-01T08:19:34;4.92;88.38
70154;DHT22;57519;51.494;-2.626;2023-03-01T08:22:03;4.89;88.12
70154;DHT22;57519;51.494;-2.626;2023-03-01T08:24:28;4.87;87.83
70154;DHT22;57519;51.494;-2.626;2023-03-01T08:26:54;4.96;87.99
70154;DHT22;57519;51.494;-2.626;2023-03-01T08:29:20;4.99;87.63
70154;DHT22;57519;51.494;-2.626;2023-03-01T08:31:46;4.96;87.32
70154;DHT22;57519;51.494;-2.626;2023-03-01T08:34:14;5.00;87.21
70154;DHT22;57519;51.494;-2.626;2023-03-01T08:36:42;5.09;87.44
70154;DHT22;57519;51.494;-2.626;2023-03-01T08:39:10;5.12;87.05
70154;DHT22;57519;51.494;-2.626;2023-03-01T08:41:36;5.19;86.72
70154;DHT22;57519;51.494;-2.626;2023-03-01T08:44:01;5.20;87.01
70154;DHT22;57519;51.494;-2.626;2023-03-01T08:46:36;5.26;86.80
70154;DHT22;57519;51.494;-2.626;2023-03-01T08:49:09;5.27;86.29
70154;DHT22;57519;51.494;-2.626;2023-03-01T08:51:35;5.31;86.29
70154;DHT22;57519;51.494;-2.626;2023-03-01T08:54:05;5.30;86.19
70154;DHT22;57519;51.494;-2.626;2023-03-01T08:56:31;5.35;86.37
70154;DHT22;57519;51.494;-2.626;2023-03-01T08:58:56;5.47;85.84
70154;DHT22;57519;51.494;-2.626;2023-03-01T09:01:22;5.48;85.79
70154;DHT22;57519;51.494;-2.626;2023-03-01T09:03:47;5.52;85.59
70154;DHT22;57519;51.494;-2.626;2023-03-01T09:06:13;5.54;85.37
70154;DHT22;57519;51.494;-2.626;2023-03-01T09:08:44;5.71;85.30
70154;DHT22;57519;51.494;-2.626;2023-03-01T09:11:13;5.81;85.04
70154;DHT22;57519;51.494;-2.626;2023-03-01T09:13:39;5.82;84.95
70154;DHT22;57519;51.494;-2.626;2023-03-01T09:16:06;5.83;85.21
70154;DHT22;57519;51.494;-2.626;2023-03-01T09:18:32;5.82;85.42
70154;DHT22;57519;51.494;-2.626;2023-03-01T09:21:15;5.89;85.35
70154;DHT22;57519;51.494;-2.626;2023-03-01T09:23:45;6.02;84.53
70154;DHT22;57519;51.494;-2.626;2023-03-01T09:26:21;6.24;84.29
70154;DHT22;57519;51.494;-2.626;2023-03-01T09:28:48;6.23;83.75
70154;DHT22;57519;51.494;-2.626;2023-03-01T09:31:16;6.44;83.74
70154;DHT22;57519;51.494;-2.626;2023-03-01T09:33:45;6.50;83.61
70154;DHT22;57519;51.494;-2.626;2023-03-01T09:36:16;6.58;83.15
70154;DHT22;57519;51.494;-2.626;2023-03-01T09:38:42;6.33;82.55
70154;DHT22;57519;51.494;-2.626;2023-03-01T09:44:00;6.21;83.34
70154;DHT22;57519;51.494;-2.626;2023-03-01T09:46:29;5.96;84.41
70154;DHT22;57519;51.494;-2.626;2023-03-01T09:49:01;5.99;85.86
70154;DHT22;57519;51.494;-2.626;2023-03-01T09:51:33;6.07;86.23
70154;DHT22;57519;51.494;-2.626;2023-03-01T09:54:01;5.99;85.52
70154;DHT22;57519;51.494;-2.626;2023-03-01T09:56:33;6.02;85.58
70154;DHT22;57519;51.494;-2.626;2023-03-01T10:01:45;5.91;86.01
70154;DHT22;57519;51.494;-2.626;2023-03-01T10:04:34;6.10;86.71
70154;DHT22;57519;51.494;-2.626;2023-03-01T10:07:27;6.36;86.47
70154;DHT22;57519;51.494;-2.626;2023-03-01T10:09:53;6.24;86.04
70154;DHT22;57519;51.494;-2.626;2023-03-01T10:12:26;6.54;85.97
70154;DHT22;57519;51.494;-2.626;2023-03-01T10:17:43;6.85;84.57
70154;DHT22;57519;51.494;-2.626;2023-03-01T10:20:19;6.61;82.77
70154;DHT22;57519;51.494;-2.626;2023-03-01T10:22:45;6.84;81.20
70154;DHT22;57519;51.494;-2.626;2023-03-01T10:25:18;6.98;80.85
70154;DHT22;57519;51.494;-2.626;2023-03-01T10:27:52;6.98;81.34
70154;DHT22;57519;51.494;-2.626;2023-03-01T10:30:38;6.47;82.82
70154;DHT22;57519;51.494;-2.626;2023-03-01T10:33:17;6.40;83.36
70154;DHT22;57519;51.494;-2.626;2023-03-01T10:35:45;6.48;83.35
70154;DHT22;57519;51.494;-2.626;2023-03-01T10:38:15;6.44;83.20
70154;DHT22;57519;51.494;-2.626;2023-03-01T10:40:58;6.61;82.84
70154;DHT22;57519;51.494;-2.626;2023-03-01T10:43:26;6.68;81.99
70154;DHT22;57519;51.494;-2.626;2023-03-01T10:45:55;6.67;81.25
70154;DHT22;57519;51.494;-2.626;2023-03-01T10:48:26;6.77;81.21
70154;DHT22;57519;51.494;-2.626;2023-03-01T10:53:36;6.89;80.61
70154;DHT22;57519;51.494;-2.626;2023-03-01T10:56:11;7.00;80.63
70154;DHT22;57519;51.494;-2.626;2023-03-01T10:58:40;7.12;80.43
70154;DHT22;57519;51.494;-2.626;2023-03-01T11:01:25;7.15;79.87
70154;DHT22;57519;51.494;-2.626;2023-03-01T11:06:36;7.15;80.27
70154;DHT22;57519;51.494;-2.626;2023-03-01T11:09:19;7.15;82.09
70154;DHT22;57519;51.494;-2.626;2023-03-01T11:11:45;6.85;83.33
70154;DHT22;57519;51.494;-2.626;2023-03-01T11:14:20;6.72;84.19
70154;DHT22;57519;51.494;-2.626;2023-03-01T11:22:46;6.41;84.36
70154;DHT22;57519;51.494;-2.626;2023-03-01T11:25:14;6.77;84.12
70154;DHT22;57519;51.494;-2.626;2023-03-01T11:27:43;6.95;83.56
70154;DHT22;57519;51.494;-2.626;2023-03-01T11:30:15;7.02;82.68
70154;DHT22;57519;51.494;-2.626;2023-03-01T11:32:50;7.06;82.73
70154;DHT22;57519;51.494;-2.626;2023-03-01T11:35:21;7.12;82.08
70154;DHT22;57519;51.494;-2.626;2023-03-01T11:38:29;7.38;78.72
70154;DHT22;57519;51.494;-2.626;2023-03-01T11:41:06;7.65;78.28
70154;DHT22;57519;51.494;-2.626;2023-03-01T11:49:37;7.96;76.44
70154;DHT22;57519;51.494;-2.626;2023-03-01T12:11:40;7.64;77.31
70154;DHT22;57519;51.494;-2.626;2023-03-01T12:38:41;7.94;77.63
70154;DHT22;57519;51.494;-2.626;2023-03-01T12:46:45;8.05;75.58
70154;DHT22;57519;51.494;-2.626;2023-03-01T12:49:25;8.13;76.61
70154;DHT22;57519;51.494;-2.626;2023-03-01T12:51:58;7.79;76.08
70154;DHT22;57519;51.494;-2.626;2023-03-01T12:54:31;7.77;76.44
70154;DHT22;57519;51.494;-2.626;2023-03-01T12:57:02;7.65;76.38
70154;DHT22;57519;51.494;-2.626;2023-03-01T12:59:39;7.53;76.31
70154;DHT22;57519;51.494;-2.626;2023-03-01T13:07:39;7.31;78.01
70154;DHT22;57519;51.494;-2.626;2023-03-01T13:12:59;7.34;78.84
70154;DHT22;57519;51.494;-2.626;2023-03-01T13:15:33;7.37;78.28
70154;DHT22;57519;51.494;-2.626;2023-03-01T13:26:15;8.34;76.53
70154;DHT22;57519;51.494;-2.626;2023-03-01T13:34:00;8.37;75.12
70154;DHT22;57519;51.494;-2.626;2023-03-01T13:44:35;8.25;75.15
70154;DHT22;57519;51.494;-2.626;2023-03-01T13:49:43;7.84;77.42
70154;DHT22;57519;51.494;-2.626;2023-03-01T13:55:05;7.77;77.13
70154;DHT22;57519;51.494;-2.626;2023-03-01T13:57:37;7.74;76.32
70154;DHT22;57519;51.494;-2.626;2023-03-01T14:00:06;7.98;76.30
70154;DHT22;57519;51.494;-2.626;2023-03-01T14:02:32;8.09;76.41
70154;DHT22;57519;51.494;-2.626;2023-03-01T14:05:00;8.23;76.36
70154;DHT22;57519;51.494;-2.626;2023-03-01T14:07:27;8.21;76.09
70154;DHT22;57519;51.494;-2.626;2023-03-01T14:10:02;8.10;75.98
70154;DHT22;57519;51.494;-2.626;2023-03-01T14:15:18;8.16;75.99
70154;DHT22;57519;51.494;-2.626;2023-03-01T14:20:29;7.98;76.30
70154;DHT22;57519;51.494;-2.626;2023-03-01T14:22:58;7.92;76.15
70154;DHT22;57519;51.494;-2.626;2023-03-01T14:25:33;8.06;76.06
70154;DHT22;57519;51.494;-2.626;2023-03-01T14:28:04;8.14;75.81
70154;DHT22;57519;51.494;-2.626;2023-03-01T14:30:36;8.17;75.20
70154;DHT22;57519;51.494;-2.626;2023-03-01T14:33:05;8.21;75.10
70154;DHT22;57519;51.494;-2.626;2023-03-01T14:35:35;8.32;74.45
70154;DHT22;57519;51.494;-2.626;2023-03-01T14:38:02;8.34;75.15
70154;DHT22;57519;51.494;-2.626;2023-03-01T14:40:32;8.22;75.19
70154;DHT22;57519;51.494;-2.626;2023-03-01T14:43:00;8.06;76.42
70154;DHT22;57519;51.494;-2.626;2023-03-01T14:45:28;7.89;77.05
70154;DHT22;57519;51.494;-2.626;2023-03-01T14:47:55;7.77;77.70
70154;DHT22;57519;51.494;-2.626;2023-03-01T14:50:27;7.74;79.49
70154;DHT22;57519;51.494;-2.626;2023-03-01T14:52:56;7.36;81.34
70154;DHT22;57519;51.494;-2.626;2023-03-01T14:55:35;7.36;82.00
70154;DHT22;57519;51.494;-2.626;2023-03-01T14:58:06;7.51;82.65
70154;DHT22;57519;51.494;-2.626;2023-03-01T15:00:32;7.54;82.08
70154;DHT22;57519;51.494;-2.626;2023-03-01T15:03:10;7.64;80.33
70154;DHT22;57519;51.494;-2.626;2023-03-01T15:05:39;7.75;81.25
70154;DHT22;57519;51.494;-2.626;2023-03-01T15:08:05;7.91;81.17
70154;DHT22;57519;51.494;-2.626;2023-03-01T15:10:36;7.77;79.97
70154;DHT22;57519;51.494;-2.626;2023-03-01T15:13:25;7.79;79.47
70154;DHT22;57519;51.494;-2.626;2023-03-01T15:15:53;7.73;78.60
70154;DHT22;57519;51.494;-2.626;2023-03-01T15:18:27;7.73;78.58
70154;DHT22;57519;51.494;-2.626;2023-03-01T15:20:54;7.68;78.30
70154;DHT22;57519;51.494;-2.626;2023-03-01T15:23:28;7.75;78.40
70154;DHT22;57519;51.494;-2.626;2023-03-01T15:25:55;7.84;78.20
70154;DHT22;57519;51.494;-2.626;2023-03-01T15:28:36;7.88;78.00
70154;DHT22;57519;51.494;-2.626;2023-03-01T15:31:19;7.94;77.28
70154;DHT22;57519;51.494;-2.626;2023-03-01T15:33:46;7.84;76.74
70154;DHT22;57519;51.494;-2.626;2023-03-01T15:38:58;7.89;76.52
70154;DHT22;57519;51.494;-2.626;2023-03-01T15:41:31;7.96;76.84
70154;DHT22;57519;51.494;-2.626;2023-03-01T15:44:16;7.98;76.49
70154;DHT22;57519;51.494;-2.626;2023-03-01T15:46:45;7.94;76.89
70154;DHT22;57519;51.494;-2.626;2023-03-01T15:49:40;7.96;76.48
70154;DHT22;57519;51.494;-2.626;2023-03-01T15:52:13;7.88;76.41
70154;DHT22;57519;51.494;-2.626;2023-03-01T15:54:43;7.85;77.20
70154;DHT22;57519;51.494;-2.626;2023-03-01T15:57:14;7.78;77.90
70154;DHT22;57519;51.494;-2.626;2023-03-01T15:59:40;7.78;77.88
70154;DHT22;57519;51.494;-2.626;2023-03-01T16:02:10;7.81;78.31
70154;DHT22;57519;51.494;-2.626;2023-03-01T16:04:38;7.79;78.27
70154;DHT22;57519;51.494;-2.626;2023-03-01T16:07:03;7.81;78.17
70154;DHT22;57519;51.494;-2.626;2023-03-01T16:09:29;7.84;77.78
70154;DHT22;57519;51.494;-2.626;2023-03-01T16:11:54;7.82;78.25
70154;DHT22;57519;51.494;-2.626;2023-03-01T16:14:20;7.75;78.01
70154;DHT22;57519;51.494;-2.626;2023-03-01T16:16:46;7.75;78.22
70154;DHT22;57519;51.494;-2.626;2023-03-01T16:19:13;7.70;78.09
70154;DHT22;57519;51.494;-2.626;2023-03-01T16:21:39;7.73;77.47
70154;DHT22;57519;51.494;-2.626;2023-03-01T16:24:06;7.71;77.55
70154;DHT22;57519;51.494;-2.626;2023-03-01T16:26:31;7.79;77.39
70154;DHT22;57519;51.494;-2.626;2023-03-01T16:28:57;7.71;77.01
70154;DHT22;57519;51.494;-2.626;2023-03-01T16:31:24;7.74;76.91
70154;DHT22;57519;51.494;-2.626;2023-03-01T16:33:56;7.71;76.90
70154;DHT22;57519;51.494;-2.626;2023-03-01T16:36:23;7.68;77.00
70154;DHT22;57519;51.494;-2.626;2023-03-01T16:38:50;7.74;77.14
70154;DHT22;57519;51.494;-2.626;2023-03-01T16:41:17;7.68;76.80
70154;DHT22;57519;51.494;-2.626;2023-03-01T16:43:43;7.63;77.16
70154;DHT22;57519;51.494;-2.626;2023-03-01T16:46:30;7.61;77.67
70154;DHT22;57519;51.494;-2.626;2023-03-01T16:48:55;7.57;78.75
70154;DHT22;57519;51.494;-2.626;2023-03-01T16:51:22;7.53;79.04
70154;DHT22;57519;51.494;-2.626;2023-03-01T16:53:48;7.50;79.53
70154;DHT22;57519;51.494;-2.626;2023-03-01T16:56:15;7.24;81.26
70154;DHT22;57519;51.494;-2.626;2023-03-01T16:58:42;7.05;83.74
70154;DHT22;57519;51.494;-2.626;2023-03-01T17:03:43;6.84;84.57
70154;DHT22;57519;51.494;-2.626;2023-03-01T17:06:11;6.75;85.06
70154;DHT22;57519;51.494;-2.626;2023-03-01T17:08:37;6.67;86.20
70154;DHT22;57519;51.494;-2.626;2023-03-01T17:11:12;6.60;86.75
70154;DHT22;57519;51.494;-2.626;2023-03-01T17:13:41;6.50;88.31
70154;DHT22;57519;51.494;-2.626;2023-03-01T17:16:08;6.44;88.22
70154;DHT22;57519;51.494;-2.626;2023-03-01T17:18:37;6.40;88.16
70154;DHT22;57519;51.494;-2.626;2023-03-01T17:21:03;6.34;89.07
70154;DHT22;57519;51.494;-2.626;2023-03-01T17:23:30;6.29;89.34
70154;DHT22;57519;51.494;-2.626;2023-03-01T17:25:56;6.30;89.01
70154;DHT22;57519;51.494;-2.626;2023-03-01T17:28:25;6.27;88.98
70154;DHT22;57519;51.494;-2.626;2023-03-01T17:30:52;6.24;89.68
70154;DHT22;57519;51.494;-2.626;2023-03-01T17:33:18;6.23;89.48
70154;DHT22;57519;51.494;-2.626;2023-03-01T17:35:44;6.26;89.21
70154;DHT22;57519;51.494;-2.626;2023-03-01T17:38:12;6.26;88.85
70154;DHT22;57519;51.494;-2.626;2023-03-01T17:40:38;6.23;88.51
70154;DHT22;57519;51.494;-2.626;2023-03-01T17:43:04;6.17;88.99
70154;DHT22;57519;51.494;-2.626;2023-03-01T17:45:29;6.19;89.06
70154;DHT22;57519;51.494;-2.626;2023-03-01T17:47:55;6.20;88.54
70154;DHT22;57519;51.494;-2.626;2023-03-01T17:50:20;6.29;87.91
70154;DHT22;57519;51.494;-2.626;2023-03-01T17:52:46;6.30;87.35
70154;DHT22;57519;51.494;-2.626;2023-03-01T17:55:11;6.26;87.55
70154;DHT22;57519;51.494;-2.626;2023-03-01T17:57:38;6.27;86.88
70154;DHT22;57519;51.494;-2.626;2023-03-01T18:00:05;6.23;87.55
70154;DHT22;57519;51.494;-2.626;2023-03-01T18:02:31;6.29;86.96